Historyczne dane pomiarowe

Dodano dane terminowe – wersja testowa.

Dane z okresu 1951-2019

Wersja bazy: 1.34 [2019-03-16, lista zmian], aktualizacja planowana na 2019-04-15

Dane meteo z obszaru Polski uzyskane na podstawie danych udostępnionych przez Instytut Meteorologii i Gospodarki Wodnej – Państwowy Instytut Badawczy.

 

Wybierz Datę:    

       

TemperaturaWilgotnośćWiatrCiśnienieOpadyŚniegCzas trwania zjawisk
 Stacja t tx tn tng RH VA  wxwx mslp ppp RRR   cm mm wxwxwxwxwxwxwx
1994-08-14 15.8 19.5 11.9 8.3 56.5- 4.3 4.0---- 0.0------------
1994-08-13 18.1 23.7 15.0 12.0 67.0- 6.3 4.3---- 0.0------------
1994-08-12 18.2 21.3 15.5 12.9 75.5- 7.0 1.7---- 0.0------------
1994-08-11 19.6 25.3 16.4 14.8 78.8- 7.0 2.0---- 1.3------------
1994-08-10 21.7 30.5 13.3 10.4 68.0- 2.7 1.0---- 9.6------------
1994-08-09 20.0 24.5 16.9 16.6 85.8- 7.7 0.7---- 1.6------------
1994-08-08 21.1 26.0 17.4 14.8 81.5- 7.3 0.7---- 24.7------------
1994-08-07 23.5 31.3 18.4 13.5 70.8- 4.7 0.3---- 1.7------------
1994-08-06 24.7 33.3 16.4 11.8 54.0- 2.7 0.7---- 0.0------------
1994-08-05 24.0 34.8 15.4 10.4 50.5- 0.7 0.3---- 0.0------------
1994-08-04 23.6 31.8 16.8 11.8 50.3- 1.0 1.0---- 0.0------------
1994-08-03 24.8 30.1 19.7 18.1 65.0- 3.3 1.0---- 0.0------------
1994-08-02 26.4 33.4 20.1 13.9 55.0- 4.3 1.7---- 0.0------------
1994-08-01 28.8 38.1 17.9 13.8 39.8- 2.7 1.0---- 0.0------------
1994-07-31 28.4 38.7 16.8 11.0 40.8- 2.3 0.0---- 0.0------------
1994-07-30 28.4 37.5 15.8 11.2 37.8- 0.0 0.7---- 0.0------------
1994-07-29 27.9 36.9 15.8 10.6 43.5- 0.7 0.7---- 0.0------------
1994-07-28 27.0 37.1 15.5 9.9 41.5- 4.3 1.7---- 0.0------------
1994-07-27 27.1 35.2 16.9 11.8 46.3- 3.3 0.7---- 0.0------------
1994-07-26 26.9 35.5 14.2 9.8 44.5- 3.0 0.0---- 0.0------------
1994-07-25 25.5 34.7 13.3 8.4 40.5- 1.7 0.3---- 0.0------------
1994-07-24 24.9 33.6 12.4 7.6 47.5- 0.7 0.3---- 0.0------------
1994-07-23 23.2 32.6 10.5 5.1 49.3- 1.7 1.0---- 0.0------------
1994-07-22 22.4 31.9 11.2 6.0 50.8- 0.7 1.3---- 0.0------------
1994-07-21 21.0 30.3 9.4 7.7 49.8- 0.0 0.3---- 0.0------------
1994-07-20 20.6 27.3 12.5 7.1 46.5- 1.7 0.3---- 0.0------------
1994-07-19 19.8 23.8 16.2 12.0 62.0- 8.0 0.3---- 0.0------------
1994-07-18 20.7 27.4 15.3 11.4 75.8- 6.7 1.3---- 0.0------------
1994-07-17 20.8 29.3 15.2 12.0 79.5- 7.0 0.7---- 1.0------------
1994-07-16 22.1 29.8 17.1 13.0 73.5- 6.0 1.0---- 1.7------------
1994-07-15 24.1 32.5 14.4 9.9 62.5- 3.3 1.7---- 0.0------------
1994-07-14 24.2 32.6 13.4 9.1 59.5- 3.0 0.7---- 0.0------------
1994-07-13 22.3 31.6 12.7 7.7 63.8- 3.7 1.7---- 0.0------------
1994-07-12 21.9 29.7 14.9 11.0 70.0- 5.7 0.7---- 0.0------------
1994-07-11 21.1 28.0 13.8 10.4 66.8- 4.0 1.0---- 0.0------------
1994-07-10 18.2 24.0 14.1 13.4 76.5- 5.0 2.3---- 0.0------------
1994-07-09 16.1 20.7 14.9 13.9 78.0- 7.7 2.3---- 3.6------------
1994-07-08 16.7 21.5 12.2 9.4 62.8- 5.0 5.0---- 0.2------------
1994-07-07 19.2 26.8 13.7 9.4 75.0- 6.0 1.3---- 0.0------------
1994-07-06 20.2 27.1 13.6 9.2 65.8- 3.3 1.0---- 0.0------------
1994-07-05 20.1 27.7 14.6 11.0 71.3- 7.0 0.7---- 0.0------------
1994-07-04 23.1 31.5 11.9 8.0 53.8- 1.0 0.0---- 0.1------------
1994-07-03 22.1 30.2 10.4 7.2 56.8- 1.0 0.3---- 0.0------------
1994-07-02 19.9 27.6 10.2 6.0 61.8- 2.3 0.7---- 0.0------------
1994-07-01 18.5 24.0 12.8 10.1 65.8- 1.0 1.3---- 0.0------------
1994-06-30 20.3 23.3 18.9 14.0 92.8- 6.3 1.0---- 5.9------------
1994-06-29 25.8 34.7 18.0 14.3 67.3- 2.7 6.3---- 11.2------------
1994-06-28 27.0 34.1 18.4 14.9 67.0- 5.0 0.3---- 0.0------------
1994-06-27 26.9 33.9 17.4 14.0 65.3- 2.7 0.0---- 0.0------------
1994-06-26 23.2 32.4 9.8 5.1 59.3- 1.3 2.7---- 0.0------------
1994-06-25 17.6 27.0 5.1 -0.2 55.8- 0.0 1.0---- 0.0------------
1994-06-24 16.2 21.9 9.0 2.7 49.8- 0.0 3.0---- 0.0------------
1994-06-23 18.4 21.8 15.3 13.4 53.0- 0.3 4.3---- 0.0------------
1994-06-22 20.1 26.6 12.1 7.6 68.5- 5.7 1.7---- 0.0------------
1994-06-21 16.8 23.1 8.8 3.5 64.5- 2.3 1.3---- 0.0------------
1994-06-20 17.1 22.1 13.7 7.7 70.0- 6.0 2.3---- 0.0------------
1994-06-19 19.1 27.0 12.5 11.4 66.5- 4.7 2.0---- 0.0------------
1994-06-18 13.1 20.7 5.1 0.9 77.8- 6.0 2.0---- 1.3------------
1994-06-17 11.7 15.5 8.4 6.7 71.5- 6.3 3.0---- 0.0------------
1994-06-16 13.0 17.4 7.6 2.6 72.8- 7.7 3.0---- 6.7------------
595.7 ms

 

Źródłem pochodzenia danych jest Instytut Meteorologii i Gospodarki Wodnej – Państwowy Instytut Badawczy. Dane Instytutu Meteorologii i Gospodarki Wodnej – Państwowego Instytutu Badawczego zostały przetworzone.

Dane źródłowe można odnaleźć na stronie https://dane.imgw.pl